Leonia, New Jersey
Current Conditions -  °F | °C
As of 7:51 PM on Friday 24 Oct 2014 (Local Time) from KTEB Reporting Station
Clear Clear  
Wind Chill: 12°   Ceiling: Unl
Heat Index: 12°   Visibility: 10mi
Dew Point:   Wind: 0mph
Humidity: 77%   Direction: NA
Pressure: 29.8"   Gusts: NA
Location:  40.86°N, 73.99°W
Report Text: KTEB 242351Z 00000KT 10SM CLR 12/08 A2980 RMK AO2 SLP091 T01170078 10183 20117 53016
Loading
Personal Weather Stations






























Interactive Weather Map
Tropical Storm Tracking
New forecast layout! Learn more

10-Day Weather Forecast

Advertisements
Track Severe Weather on mobile